Hartly, Delaware
Current Conditions -  °F | °C
As of 11:58 AM on Saturday 22 Nov 2014 (Local Time) from KDOV Reporting Station
Clear Clear  
Wind Chill: 35°   Ceiling: Unl
Heat Index: 43°   Visibility: 10mi
Dew Point: 19°   Wind: 17mph
Humidity: 38%   Direction: 210°SSW
Pressure: 30.43"   Gusts: NA
Location:  39.17°N, 75.71°W
Report Text: KDOV 221658Z AUTO 21015KT 10SM CLR 06/M07 A3043 RMK AO2 SLP308 T00611074
Loading
Personal Weather Stations






























Interactive Weather Map New forecast layout! Learn more

10-Day Weather Forecast

Advertisements
Track Severe Weather on mobile